Maersk Essen — V7UQ8 — position and weather

sailwx.info

Track history (hours):
 
Tides and Currents Weather Stations Pressure Air Temp Water Temp Dewpoint Dewpoint Depression Visibility Wind Speed Wind Dir Waves Ship Positions

Maersk Essen

Last reported at 2018-Jan-29 01:19 UTC. Time now 2018-Apr-23 21:24 UTC.
Position N 35°25' E 139°43'.
Warning: this ship's position is months out of date.

Length 367 m; draft 11.5 m.

Type: Ship (hazmat cat A). MMSI: 538004007.

Date/timePositionNaut miles runAvg speedWind from/ knotsBaromVisibWave heightAir tempDewpointWater temp
2018-Jan-29 01:19N 35°25' E 139°43'0 0.0
2018-Jan-29 00:58N 35°25' E 139°43'0 0.1
2018-Jan-29 00:31N 35°25' E 139°43'3 5.9
2018-Jan-29 00:01N 35°22' E 139°43'611.7
2018-Jan-28 23:31N 35°17' E 139°46'612.1
2018-Jan-28 23:00N 35°11' E 139°47'4 8.2
2018-Jan-28 22:31N 35°07' E 139°46'5 9.8
2018-Jan-28 22:00N 35°02' E 139°44'611.1
2018-Jan-28 21:30N 34°57' E 139°41'612.5
2018-Jan-28 21:00N 34°51' E 139°43'1317.4
2018-Jan-28 20:16N 34°47' E 139°58'517.6
2018-Jan-28 20:00N 34°47' E 140°04'917.2
2018-Jan-28 19:29N 34°45' E 140°15'  
Track history (hours):
 
Tides and Currents Weather Stations Pressure Air Temp Water Temp Dewpoint Dewpoint Depression Visibility Wind Speed Wind Dir Waves Ship Positions

Maersk Essen

Last reported at 2018-Jan-29 01:19 UTC. Time now 2018-Apr-23 21:24 UTC.
Position N 35°25' E 139°43'.
Warning: this ship's position is months out of date.

Length 367 m; draft 11.5 m.

Type: Ship (hazmat cat A). MMSI: 538004007.

Date/timePositionNaut miles runAvg speedWind from/ knotsBaromVisibWave heightAir tempDewpointWater temp
2018-Jan-29 01:19N 35°25' E 139°43'0 0.0
2018-Jan-29 00:58N 35°25' E 139°43'0 0.1
2018-Jan-29 00:31N 35°25' E 139°43'3 5.9
2018-Jan-29 00:01N 35°22' E 139°43'611.7
2018-Jan-28 23:31N 35°17' E 139°46'612.1
2018-Jan-28 23:00N 35°11' E 139°47'4 8.2
2018-Jan-28 22:31N 35°07' E 139°46'5 9.8
2018-Jan-28 22:00N 35°02' E 139°44'611.1
2018-Jan-28 21:30N 34°57' E 139°41'612.5
2018-Jan-28 21:00N 34°51' E 139°43'1317.4
2018-Jan-28 20:16N 34°47' E 139°58'517.6
2018-Jan-28 20:00N 34°47' E 140°04'917.2
2018-Jan-28 19:29N 34°45' E 140°15'  

Dump ship's entire track history